Time;durP1;ratioP1;P1;durP2;ratioP2;P2;SDS_P1;SDS_P2;PMS_P1;PMS_P2;Temp;Humidity;BMP_temperature;BMP_pressure;BME280_temperature;BME280_humidity;BME280_pressure;Samples;Min_cycle;Max_cycle;Signal;HPM_P1;HPM_P2
2022/12/03 00:00:57;;;;;;;40.03;21.40;;;;;;;0.75;93.09;96109.44;2041741;29;20039;-59
2022/12/03 00:01:58;;;;;;;41.35;22.05;;;;;;;0.71;93.06;96112.88;2041515;29;20055;-57
2022/12/03 00:02:59;;;;;;;43.85;21.80;;;;;;;0.68;92.89;96112.91;2041796;29;20045;-57
2022/12/03 00:04:00;;;;;;;41.60;21.88;;;;;;;0.54;93.17;96100.22;2041555;29;20062;-57
2022/12/03 00:05:01;;;;;;;38.72;19.67;;;;;;;0.63;93.76;96112.94;2041807;29;20052;-57
2022/12/03 00:06:02;;;;;;;40.55;21.20;;;;;;;0.68;93.17;96112.91;2041592;29;20055;-57
2022/12/03 00:07:03;;;;;;;40.65;20.98;;;;;;;0.74;93.14;96112.88;2041651;29;20055;-65
2022/12/03 00:08:05;;;;;;;39.80;20.58;;;;;;;0.64;93.07;96102.72;2041530;29;20060;-65
2022/12/03 00:09:06;;;;;;;41.17;21.42;;;;;;;0.62;93.38;96111.25;2041101;29;20492;-65
2022/12/03 00:10:07;;;;;;;43.13;21.08;;;;;;;0.58;93.28;96112.94;2040188;29;20051;-65
2022/12/03 00:11:08;;;;;;;39.55;21.15;;;;;;;0.55;93.10;96115.53;2041046;29;20396;-65
2022/12/03 00:12:09;;;;;;;39.22;20.83;;;;;;;0.58;93.12;96112.94;2041593;29;20056;-59
2022/12/03 00:13:10;;;;;;;41.38;21.55;;;;;;;0.50;93.33;96113.88;2040960;29;20456;-59
2022/12/03 00:14:11;;;;;;;42.33;21.80;;;;;;;0.60;93.24;96112.97;2041718;29;20043;-59
2022/12/03 00:15:13;;;;;;;44.13;22.42;;;;;;;0.57;93.66;96111.28;2041546;29;20046;-60
2022/12/03 00:16:14;;;;;;;46.72;22.85;;;;;;;0.54;93.21;96102.78;2040820;29;20494;-59
2022/12/03 00:17:15;;;;;;;44.30;22.73;;;;;;;0.55;93.07;96112.97;2041735;29;20042;-59
2022/12/03 00:18:16;;;;;;;42.67;21.98;;;;;;;0.61;93.05;96114.66;2041647;29;20043;-59
2022/12/03 00:19:17;;;;;;;41.20;22.08;;;;;;;0.62;93.03;96104.41;2041015;29;20476;-60
2022/12/03 00:20:20;;;;;;;43.00;21.02;;;;;;;0.56;93.25;96113.81;2041301;29;20056;-60
2022/12/03 00:21:21;;;;;;;45.63;22.13;;;;;;;0.53;92.84;96112.13;2041476;29;20055;-60
2022/12/03 00:22:22;;;;;;;40.40;20.65;;;;;;;0.47;93.10;96101.97;2041648;29;20063;-59
2022/12/03 00:23:24;;;;;;;40.30;21.05;;;;;;;0.52;92.62;96112.16;2041734;29;20051;-59
2022/12/03 00:24:26;;;;;;;41.47;21.17;;;;;;;0.46;92.48;96110.50;2041334;29;20056;-60
2022/12/03 00:25:27;;;;;;;43.50;21.23;;;;;;;0.45;92.52;96116.44;2041645;29;20048;-59
2022/12/03 00:26:28;;;;;;;40.72;21.15;;;;;;;0.44;92.54;96109.66;2041836;29;20044;-60
2022/12/03 00:27:29;;;;;;;39.63;20.65;;;;;;;0.32;92.94;96092.69;2041677;29;20044;-61
2022/12/03 00:28:31;;;;;;;42.90;22.13;;;;;;;0.45;92.88;96111.34;2041557;29;20411;-61
2022/12/03 00:29:32;;;;;;;48.25;22.85;;;;;;;0.42;92.84;96114.75;2041553;29;20051;-61
2022/12/03 00:30:33;;;;;;;40.90;21.67;;;;;;;0.40;92.79;96113.06;2041464;29;20059;-61
2022/12/03 00:31:34;;;;;;;43.42;21.63;;;;;;;0.40;92.68;96113.94;2041372;29;20056;-58
2022/12/03 00:32:36;;;;;;;46.80;22.88;;;;;;;0.29;93.16;96092.69;2041520;29;20059;-59
2022/12/03 00:33:37;;;;;;;43.28;21.70;;;;;;;0.41;93.33;96109.66;2041558;29;20074;-59
2022/12/03 00:34:38;;;;;;;44.72;23.00;;;;;;;0.40;93.19;96118.16;2041446;29;20062;-59
2022/12/03 00:35:39;;;;;;;48.03;23.40;;;;;;;0.41;92.86;96114.78;2041195;29;20063;-59
2022/12/03 00:36:40;;;;;;;47.17;22.25;;;;;;;0.38;92.67;96114.81;2041090;29;20063;-59
2022/12/03 00:37:41;;;;;;;42.60;21.33;;;;;;;0.36;92.25;96107.13;2041480;29;20050;-59
2022/12/03 00:38:42;;;;;;;43.47;21.30;;;;;;;0.30;92.67;96107.19;2041766;29;20063;-59
2022/12/03 00:39:43;;;;;;;50.45;22.67;;;;;;;0.32;92.60;96114.81;2040834;29;20059;-59
2022/12/03 00:40:44;;;;;;;44.47;21.67;;;;;;;0.35;92.77;96118.22;2040776;29;20396;-59
2022/12/03 00:41:46;;;;;;;48.33;22.15;;;;;;;0.33;92.31;96119.09;2041125;29;20071;-59
2022/12/03 00:42:47;;;;;;;52.17;21.65;;;;;;;0.28;93.02;96108.03;2041680;29;20055;-59
2022/12/03 00:43:48;;;;;;;44.88;20.88;;;;;;;0.33;92.84;96114.81;2041301;29;20502;-59
2022/12/03 00:44:49;;;;;;;43.97;21.33;;;;;;;0.23;92.29;96110.59;2041170;29;20062;-59
2022/12/03 00:45:50;;;;;;;46.90;21.23;;;;;;;0.24;92.75;96121.66;2041724;29;20059;-59
2022/12/03 00:46:51;;;;;;;43.65;21.98;;;;;;;0.21;92.87;96118.28;2041276;29;20052;-61
2022/12/03 00:47:52;;;;;;;45.00;20.20;;;;;;;0.26;92.99;96115.69;2040884;29;20412;-62
2022/12/03 00:48:53;;;;;;;49.45;22.65;;;;;;;0.18;92.85;96120.84;2041327;29;20060;-61
2022/12/03 00:49:55;;;;;;;50.08;22.55;;;;;;;0.21;93.36;96123.41;2041371;29;20056;-61
2022/12/03 00:50:56;;;;;;;50.38;23.95;;;;;;;0.11;93.59;96116.63;2041637;29;20476;-61
2022/12/03 00:51:57;;;;;;;49.13;21.63;;;;;;;0.07;93.76;96120.03;2041702;29;20055;-55
2022/12/03 00:52:58;;;;;;;52.13;23.17;;;;;;;0.13;93.91;96116.59;2041425;29;20050;-55
2022/12/03 00:53:59;;;;;;;48.67;22.35;;;;;;;0.14;93.21;96126.84;2041461;29;20514;-54
2022/12/03 00:55:00;;;;;;;50.08;22.75;;;;;;;0.10;93.56;96126.84;2041437;29;20050;-55
2022/12/03 00:56:01;;;;;;;52.42;23.17;;;;;;;0.11;93.34;96123.47;2041497;29;20058;-55
2022/12/03 00:57:02;;;;;;;52.80;22.42;;;;;;;0.08;93.74;96126.88;2041299;29;20483;-54
2022/12/03 00:58:03;;;;;;;55.17;25.08;;;;;;;-0.01;93.29;96119.22;2041393;29;20052;-55
2022/12/03 00:59:04;;;;;;;52.83;22.17;;;;;;;0.02;93.61;96124.31;2041483;29;20048;-55
2022/12/03 01:00:06;;;;;;;59.35;23.58;;;;;;;-0.05;93.88;96125.22;2041528;29;20507;-56
2022/12/03 01:01:07;;;;;;;56.30;24.60;;;;;;;-0.04;94.16;96124.34;2043037;29;20052;-55
2022/12/03 01:02:09;;;;;;;59.13;24.40;;;;;;;-0.13;94.10;96114.19;2042453;29;20059;-60
2022/12/03 01:03:10;;;;;;;59.72;24.98;;;;;;;-0.05;94.15;96120.97;2042119;29;20074;-59
2022/12/03 01:04:11;;;;;;;58.45;24.90;;;;;;;-0.16;94.02;96106.50;2042166;29;20476;-59
2022/12/03 01:05:12;;;;;;;63.60;24.88;;;;;;;-0.09;94.47;96100.53;2045766;29;20047;-59
2022/12/03 01:06:13;;;;;;;58.38;25.20;;;;;;;-0.03;93.95;96113.28;2042340;29;20060;-59
2022/12/03 01:07:14;;;;;;;60.38;25.58;;;;;;;-0.03;94.25;96113.28;2042258;29;20411;-59
2022/12/03 01:08:15;;;;;;;60.85;25.20;;;;;;;-0.05;94.16;96112.44;2042815;29;20067;-59
2022/12/03 01:09:16;;;;;;;60.05;25.90;;;;;;;-0.10;94.20;96114.16;2042555;29;20051;-59
2022/12/03 01:10:17;;;;;;;55.80;23.30;;;;;;;-0.15;94.13;96119.28;2042957;29;20365;-59
2022/12/03 01:11:37;;;;;;;64.57;25.52;;;;;;;-0.16;94.62;96116.72;2042597;29;20059;-59
2022/12/03 01:12:38;;;;;;;59.00;23.55;;;;;;;-0.21;94.32;96124.41;2042660;29;20051;-59
2022/12/03 01:13:39;;;;;;;54.92;23.10;;;;;;;-0.17;94.31;96122.69;2042729;29;20055;-59
2022/12/03 01:14:40;;;;;;;62.40;23.67;;;;;;;-0.37;94.21;96092.16;2043033;29;20150;-60
2022/12/03 01:15:41;;;;;;;59.05;24.35;;;;;;;-0.20;93.65;96125.25;2042648;29;20044;-60
2022/12/03 01:16:42;;;;;;;57.03;24.20;;;;;;;-0.31;94.17;96103.16;2042834;29;20131;-54
2022/12/03 01:17:43;;;;;;;58.70;23.67;;;;;;;-0.31;94.35;96118.47;2042431;29;20064;-54
2022/12/03 01:18:45;;;;;;;66.35;24.45;;;;;;;-0.26;94.08;96113.38;2042278;29;20479;-54
2022/12/03 01:19:46;;;;;;;61.15;25.10;;;;;;;-0.25;94.12;96121.00;2042421;29;20062;-55
2022/12/03 01:20:47;;;;;;;66.53;25.65;;;;;;;-0.34;94.32;96121.06;2042402;29;20471;-55
2022/12/03 01:21:49;;;;;;;63.00;23.92;;;;;;;-0.41;94.55;96098.09;2042334;29;20060;-61
2022/12/03 01:22:50;;;;;;;67.70;25.83;;;;;;;-0.31;95.32;96113.38;2042566;29;20044;-61
2022/12/03 01:23:51;;;;;;;60.28;24.70;;;;;;;-0.22;94.62;96117.59;2041947;29;20055;-63
2022/12/03 01:24:52;;;;;;;69.40;25.45;;;;;;;-0.34;94.58;96100.63;2041705;29;20063;-60
2022/12/03 01:25:53;;;;;;;67.03;26.45;;;;;;;-0.28;94.96;96115.91;2042609;29;20048;-61
2022/12/03 01:26:55;;;;;;;66.38;26.65;;;;;;;-0.29;95.02;96121.88;2042395;29;20047;-55
2022/12/03 01:27:56;;;;;;;64.75;24.85;;;;;;;-0.25;94.70;96122.72;2042467;29;20055;-55
2022/12/03 01:28:57;;;;;;;57.72;25.08;;;;;;;-0.26;94.58;96121.03;2042611;29;20040;-55
2022/12/03 01:29:58;;;;;;;59.33;23.65;;;;;;;-0.28;95.09;96115.91;2041358;29;20070;-55
2022/12/03 01:32:19;;;;;;;63.92;23.58;;;;;;;-0.37;95.02;96115.97;2042555;29;20071;-55
2022/12/03 01:33:20;;;;;;;56.40;21.42;;;;;;;-0.34;94.62;96122.75;2042738;29;20056;-55
2022/12/03 01:34:21;;;;;;;58.03;24.05;;;;;;;-0.37;94.77;96125.31;2042295;29;20064;-55
2022/12/03 01:35:22;;;;;;;56.47;23.73;;;;;;;-0.46;95.32;96098.09;2042295;29;20063;-55
2022/12/03 01:36:24;;;;;;;59.70;23.55;;;;;;;-0.33;95.09;96114.22;2042684;29;20515;-59
2022/12/03 01:37:25;;;;;;;56.53;22.90;;;;;;;-0.34;94.33;96108.28;2042115;29;20058;-59
2022/12/03 01:38:26;;;;;;;53.33;22.65;;;;;;;-0.37;95.02;96110.84;2041463;29;20416;-59
2022/12/03 01:39:27;;;;;;;61.53;23.05;;;;;;;-0.42;94.58;96115.13;2042234;29;20047;-59
2022/12/03 01:40:28;;;;;;;59.53;23.60;;;;;;;-0.38;94.90;96124.44;2042602;29;20063;-59
2022/12/03 01:41:30;;;;;;;63.55;23.77;;;;;;;-0.37;94.46;96122.78;2042543;29;20059;-61
2022/12/03 01:42:35;;;;;;;55.40;23.40;;;;;;;-0.31;94.86;96122.75;2042222;29;20043;-61
2022/12/03 01:43:36;;;;;;;58.17;23.25;;;;;;;-0.30;94.76;96122.72;2034540;29;20055;-61
2022/12/03 01:44:38;;;;;;;60.58;24.00;;;;;;;-0.41;94.58;96111.69;2033769;29;20079;-61
2022/12/03 01:45:39;;;;;;;66.00;24.58;;;;;;;-0.39;94.82;96104.06;2033841;29;20048;-61
2022/12/03 01:46:40;;;;;;;64.07;25.52;;;;;;;-0.31;95.03;96128.69;2041918;29;20399;-60
2022/12/03 01:47:41;;;;;;;71.90;24.77;;;;;;;-0.25;95.40;96122.72;2041931;29;20056;-60
2022/12/03 01:48:42;;;;;;;65.68;23.38;;;;;;;-0.36;95.00;96112.53;2041716;29;20066;-60
2022/12/03 01:50:01;;;;;;;57.17;24.05;;;;;;;-0.31;94.74;96126.13;2041699;29;20056;-61
2022/12/03 01:51:02;;;;;;;59.72;24.55;;;;;;;-0.25;94.92;96128.66;2042178;29;20464;-61
2022/12/03 01:52:03;;;;;;;58.90;22.17;;;;;;;-0.41;95.01;96110.84;2041835;29;20047;-59
2022/12/03 01:53:04;;;;;;;62.55;24.35;;;;;;;-0.38;95.09;96128.72;2041611;29;20050;-59
2022/12/03 01:54:05;;;;;;;60.05;23.30;;;;;;;-0.32;95.29;96126.13;2033342;29;20067;-59
2022/12/03 01:55:11;;;;;;;60.53;24.20;;;;;;;-0.31;95.00;96125.28;2042017;29;20073;-59
2022/12/03 01:56:15;;;;;;;67.13;24.80;;;;;;;-0.33;95.15;96125.28;2041173;29;20111;-59
2022/12/03 01:57:21;;;;;;;64.20;23.90;;;;;;;-0.26;95.07;96132.09;2042186;29;20550;-54
2022/12/03 01:58:25;;;;;;;61.03;22.88;;;;;;;-0.28;95.21;96122.72;2041985;29;20043;-53
2022/12/03 01:59:33;;;;;;;67.10;25.52;;;;;;;-0.27;95.17;96125.28;2026042;29;20512;-54
2022/12/03 02:00:34;;;;;;;69.30;24.40;;;;;;;-0.27;95.04;96130.41;2028298;29;20535;-55
2022/12/03 02:01:35;;;;;;;68.88;25.05;;;;;;;-0.26;95.06;96131.25;2034182;29;20083;-60
2022/12/03 02:02:36;;;;;;;63.13;22.85;;;;;;;-0.24;94.89;96137.19;2041958;29;20051;-60
2022/12/03 02:03:41;;;;;;;60.38;23.10;;;;;;;-0.22;94.72;96135.47;2041601;29;20059;-61
2022/12/03 02:04:42;;;;;;;69.60;25.88;;;;;;;-0.33;94.63;96117.63;2041805;29;20054;-61
2022/12/03 02:05:43;;;;;;;66.28;24.50;;;;;;;-0.21;94.85;96137.19;2033893;29;20056;-61
2022/12/03 02:06:44;;;;;;;67.97;25.63;;;;;;;-0.21;94.70;96132.06;2041813;29;20604;-61
2022/12/03 02:07:45;;;;;;;63.88;25.15;;;;;;;-0.19;94.56;96132.06;2042553;29;20051;-61
2022/12/03 02:08:46;;;;;;;61.53;24.38;;;;;;;-0.37;94.23;96121.06;2042164;29;20051;-61
2022/12/03 02:09:47;;;;;;;62.35;24.90;;;;;;;-0.22;94.45;96128.66;2042005;29;20063;-61
2022/12/03 02:10:49;;;;;;;71.07;26.38;;;;;;;-0.27;94.62;96127.84;2042357;29;20039;-61
2022/12/03 02:11:50;;;;;;;67.97;25.80;;;;;;;-0.39;94.86;96114.25;2041106;29;20164;-54
2022/12/03 02:12:57;;;;;;;70.43;28.15;;;;;;;-0.30;94.93;96130.38;2040966;29;20051;-55
2022/12/03 02:14:01;;;;;;;73.13;27.15;;;;;;;-0.29;94.93;96126.16;2041585;29;20498;-56
2022/12/03 02:15:02;;;;;;;64.32;26.17;;;;;;;-0.22;95.29;96126.09;2042456;29;20067;-54
2022/12/03 02:16:03;;;;;;;71.75;27.27;;;;;;;-0.34;94.93;96097.25;2041786;29;20495;-56
2022/12/03 02:17:04;;;;;;;68.15;26.02;;;;;;;-0.16;95.04;96127.81;2034057;29;20080;-56
2022/12/03 02:18:06;;;;;;;72.88;25.65;;;;;;;-0.13;94.89;96125.25;2025932;29;20052;-55
2022/12/03 02:19:21;;;;;;;76.78;26.92;;;;;;;-0.15;94.72;96123.56;2025939;29;20052;-54
2022/12/03 02:20:22;;;;;;;75.93;27.55;;;;;;;-0.12;94.71;96129.47;2027638;29;20133;-55
2022/12/03 02:21:28;;;;;;;85.47;27.90;;;;;;;-0.13;94.84;96124.41;2035268;29;20543;-60
2022/12/03 02:22:39;;;;;;;74.38;26.92;;;;;;;-0.16;95.15;96125.25;2041553;29;20484;-61
2022/12/03 02:23:51;;;;;;;77.05;26.60;;;;;;;-0.11;94.62;96122.66;2030061;29;20048;-61
2022/12/03 02:25:16;;;;;;;85.50;29.02;;;;;;;-0.14;95.44;96115.88;2036340;29;20060;-62
2022/12/03 02:26:17;;;;;;;79.93;27.65;;;;;;;-0.20;95.25;96126.09;2040749;29;20047;-61
2022/12/03 02:27:18;;;;;;;80.45;29.50;;;;;;;-0.20;95.38;96122.72;2033438;29;20060;-60
2022/12/03 02:28:19;;;;;;;85.07;29.45;;;;;;;-0.11;95.46;96125.22;2041485;29;20066;-61
2022/12/03 02:29:21;;;;;;;81.70;29.73;;;;;;;-0.04;95.05;96116.69;2041295;29;20060;-61
2022/12/03 02:30:23;;;;;;;82.00;29.05;;;;;;;-0.11;94.94;96117.56;2041819;29;20052;-61
2022/12/03 02:31:24;;;;;;;82.00;28.58;;;;;;;-0.07;94.83;96119.25;2042075;29;20058;-61
2022/12/03 02:32:25;;;;;;;83.22;29.77;;;;;;;-0.04;95.40;96119.25;2042146;29;20052;-61
2022/12/03 02:33:26;;;;;;;77.63;27.17;;;;;;;-0.10;95.21;96114.16;2041506;29;20511;-61
2022/12/03 02:34:43;;;;;;;72.90;28.05;;;;;;;-0.10;95.10;96111.63;2041346;29;20051;-62
2022/12/03 02:35:44;;;;;;;84.95;28.58;;;;;;;-0.12;95.16;96110.78;2041730;29;20055;-61
2022/12/03 02:36:45;;;;;;;82.13;28.42;;;;;;;0.00;95.16;96123.50;2042004;29;20063;-61
2022/12/03 02:37:47;;;;;;;77.20;30.38;;;;;;;-0.08;94.88;96115.88;2040768;29;20146;-61
2022/12/03 02:38:48;;;;;;;82.85;28.52;;;;;;;-0.16;95.37;96104.84;2041486;29;20055;-62
2022/12/03 02:39:52;;;;;;;72.68;26.17;;;;;;;-0.11;94.96;96120.97;2042210;29;20048;-61
2022/12/03 02:40:55;;;;;;;73.45;26.13;;;;;;;-0.21;95.01;96121.88;2041596;29;20043;-61
2022/12/03 02:43:16;;;;;;;71.68;26.23;;;;;;;-0.23;95.38;96119.31;2036011;29;20055;-57
2022/12/03 02:44:17;;;;;;;68.13;27.48;;;;;;;-0.10;95.03;96124.38;2035881;29;20051;-57
2022/12/03 02:45:20;;;;;;;83.45;28.90;;;;;;;-0.14;94.68;96125.22;2040843;29;20444;-57
2022/12/03 02:46:21;;;;;;;77.32;28.15;;;;;;;-0.19;95.19;96119.28;2040378;29;20052;-57
2022/12/03 02:47:22;;;;;;;76.03;28.25;;;;;;;-0.22;95.03;96108.22;2033741;29;20055;-57
2022/12/03 02:48:36;;;;;;;72.93;27.35;;;;;;;-0.21;95.09;96104.00;2033070;29;20428;-57
2022/12/03 02:49:37;;;;;;;77.43;27.33;;;;;;;-0.12;94.77;96118.44;2041278;29;20052;-57
2022/12/03 02:50:40;;;;;;;69.60;26.98;;;;;;;-0.16;94.73;96122.72;2041969;29;20059;-57
2022/12/03 02:51:42;;;;;;;71.85;27.83;;;;;;;-0.15;94.93;96119.28;2041457;29;20063;-59
2022/12/03 02:52:43;;;;;;;74.30;27.38;;;;;;;-0.30;94.55;96106.56;2041153;29;20059;-59
2022/12/03 02:53:45;;;;;;;73.68;27.17;;;;;;;-0.35;94.86;96106.56;2048683;29;20519;-59
2022/12/03 02:54:46;;;;;;;71.10;26.73;;;;;;;-0.33;94.96;96121.88;2041094;29;20062;-60
2022/12/03 02:55:48;;;;;;;67.35;27.73;;;;;;;-0.31;95.47;96120.19;2033623;29;20067;-59
2022/12/03 02:56:49;;;;;;;81.72;29.83;;;;;;;-0.27;95.14;96122.75;2040648;29;20078;-59
2022/12/03 02:57:50;;;;;;;77.30;28.00;;;;;;;-0.33;94.52;96119.34;2033262;29;20070;-59
2022/12/03 02:58:52;;;;;;;72.38;26.45;;;;;;;-0.39;94.92;96104.91;2033236;29;20052;-59
2022/12/03 02:59:53;;;;;;;68.70;26.13;;;;;;;-0.42;95.46;96101.50;2025895;29;20397;-59
2022/12/03 03:00:55;;;;;;;74.53;27.52;;;;;;;-0.37;94.85;96103.19;2033497;29;20489;-59
2022/12/03 03:01:56;;;;;;;71.95;26.08;;;;;;;-0.32;95.19;96114.25;2048571;29;20070;-59
2022/12/03 03:02:57;;;;;;;73.32;27.27;;;;;;;-0.32;95.40;96111.69;2041320;29;20066;-59
2022/12/03 03:03:58;;;;;;;67.68;25.90;;;;;;;-0.32;94.69;96115.91;2041376;29;20082;-60
2022/12/03 03:04:59;;;;;;;72.32;26.08;;;;;;;-0.41;94.90;96086.19;2043825;29;20090;-59
2022/12/03 03:06:00;;;;;;;64.38;27.30;;;;;;;-0.31;95.30;96108.28;2025353;29;20053;-60
2022/12/03 03:07:01;;;;;;;64.50;25.05;;;;;;;-0.33;95.34;96112.53;2032858;29;20078;-59
2022/12/03 03:08:03;;;;;;;73.32;27.58;;;;;;;-0.28;94.77;96112.53;2042031;29;20494;-59
2022/12/03 03:09:04;;;;;;;67.32;26.65;;;;;;;-0.28;94.77;96107.41;2041218;29;20039;-59
2022/12/03 03:10:06;;;;;;;66.38;25.65;;;;;;;-0.30;94.73;96109.97;2033623;29;20063;-59
2022/12/03 03:11:07;;;;;;;60.58;23.25;;;;;;;-0.19;94.57;96111.63;2040808;29;20138;-59
2022/12/03 03:12:08;;;;;;;64.32;24.70;;;;;;;-0.21;94.32;96116.75;2049406;28;20526;-61
2022/12/03 03:13:11;;;;;;;67.28;25.63;;;;;;;-0.26;94.24;96116.78;2040233;29;20062;-61
2022/12/03 03:14:13;;;;;;;59.17;23.90;;;;;;;-0.30;94.14;96104.84;2033523;29;20639;-61
2022/12/03 03:15:14;;;;;;;65.75;24.10;;;;;;;-0.40;94.50;96094.69;2032833;29;20155;-61
2022/12/03 03:16:15;;;;;;;57.80;22.25;;;;;;;-0.46;94.43;96101.50;2041216;29;20055;-61
2022/12/03 03:17:16;;;;;;;52.40;21.67;;;;;;;-0.31;94.63;96110.81;2041827;29;20476;-61
2022/12/03 03:18:17;;;;;;;59.13;22.95;;;;;;;-0.29;94.27;96111.69;2041545;29;20059;-61
2022/12/03 03:19:18;;;;;;;55.50;22.63;;;;;;;-0.19;94.09;96114.19;2040762;29;20064;-61
2022/12/03 03:20:22;;;;;;;62.05;24.05;;;;;;;-0.19;93.75;96114.19;2033748;29;20056;-61
2022/12/03 03:21:23;;;;;;;62.33;22.80;;;;;;;-0.23;94.02;96111.66;2033607;29;20060;-59
2022/12/03 03:22:36;;;;;;;58.25;22.38;;;;;;;-0.27;94.55;96112.53;2040951;29;20074;-61
2022/12/03 03:23:37;;;;;;;55.08;22.15;;;;;;;-0.26;94.19;96101.47;2041676;29;20443;-62
2022/12/03 03:24:38;;;;;;;51.92;21.40;;;;;;;-0.34;94.32;96103.19;2041276;29;20078;-61
2022/12/03 03:25:41;;;;;;;59.88;22.65;;;;;;;-0.28;94.20;96109.97;2041021;29;20051;-61
2022/12/03 03:26:42;;;;;;;55.28;22.35;;;;;;;-0.31;94.14;96103.16;2025952;29;20041;-61
2022/12/03 03:27:43;;;;;;;52.03;22.83;;;;;;;-0.24;94.59;96107.41;2032863;29;20063;-61
2022/12/03 03:28:46;;;;;;;57.00;22.17;;;;;;;-0.33;94.12;96092.09;2049002;29;20443;-60
2022/12/03 03:29:47;;;;;;;57.47;22.10;;;;;;;-0.29;94.27;96109.13;2033868;29;20063;-61
2022/12/03 03:30:48;;;;;;;54.97;20.70;;;;;;;-0.29;94.01;96111.69;2040945;29;20052;-61
2022/12/03 03:31:49;;;;;;;48.45;20.23;;;;;;;-0.34;93.93;96115.94;2041248;29;20423;-61
2022/12/03 03:32:50;;;;;;;52.47;21.20;;;;;;;-0.36;93.63;96114.25;2032998;29;20063;-61
2022/12/03 03:33:52;;;;;;;55.30;21.80;;;;;;;-0.47;93.90;96115.13;2041032;29;20063;-61
2022/12/03 03:34:54;;;;;;;50.17;21.73;;;;;;;-0.54;93.98;96097.28;2040866;29;20456;-62
2022/12/03 03:35:55;;;;;;;53.47;22.08;;;;;;;-0.46;93.81;96110.88;2032966;29;20052;-61
2022/12/03 03:36:56;;;;;;;53.10;22.17;;;;;;;-0.53;93.76;96116.84;2040691;29;20062;-55
2022/12/03 03:37:57;;;;;;;58.22;22.80;;;;;;;-0.60;93.83;96094.75;2041164;29;20448;-55
2022/12/03 03:38:58;;;;;;;48.10;20.52;;;;;;;-0.47;94.06;96115.13;2032418;29;20044;-55
2022/12/03 03:39:59;;;;;;;52.10;21.92;;;;;;;-0.45;93.86;96120.22;2040368;29;20052;-55
2022/12/03 03:41:01;;;;;;;51.55;20.52;;;;;;;-0.53;94.04;96102.38;2041528;29;20060;-55
2022/12/03 03:42:02;;;;;;;48.92;21.05;;;;;;;-0.53;93.61;96107.50;2040705;29;20059;-55
2022/12/03 03:43:03;;;;;;;54.45;22.48;;;;;;;-0.49;93.60;96108.31;2032849;29;20058;-54
2022/12/03 03:44:05;;;;;;;50.55;21.33;;;;;;;-0.52;93.35;96111.72;2025496;29;20067;-54
2022/12/03 03:45:06;;;;;;;53.08;20.58;;;;;;;-0.53;94.07;96111.75;2032694;29;20055;-55
2022/12/03 03:46:07;;;;;;;57.13;21.80;;;;;;;-0.52;93.96;96109.19;2041348;29;20043;-54
2022/12/03 03:47:09;;;;;;;53.25;21.95;;;;;;;-0.53;93.69;96112.59;2041098;29;20051;-55
2022/12/03 03:48:10;;;;;;;58.72;22.30;;;;;;;-0.56;94.01;96111.72;2041043;29;20056;-54
2022/12/03 03:49:11;;;;;;;50.45;20.90;;;;;;;-0.62;94.10;96104.09;2025023;29;20404;-54
2022/12/03 03:50:12;;;;;;;59.42;21.50;;;;;;;-0.61;94.74;96110.91;2033291;29;20040;-55
2022/12/03 03:51:13;;;;;;;52.95;20.65;;;;;;;-0.55;94.92;96105.78;2041244;29;20060;-54
2022/12/03 03:52:14;;;;;;;51.28;19.80;;;;;;;-0.54;94.22;96113.44;2047981;29;20062;-53
2022/12/03 03:53:15;;;;;;;49.80;21.17;;;;;;;-0.56;94.51;96102.41;2048450;29;20058;-55
2022/12/03 03:54:16;;;;;;;53.22;21.58;;;;;;;-0.48;94.33;96110.88;2040150;29;20515;-55
2022/12/03 03:55:19;;;;;;;50.65;21.15;;;;;;;-0.45;93.98;96104.91;2040187;29;20060;-55
2022/12/03 03:56:20;;;;;;;53.58;21.40;;;;;;;-0.56;94.19;96104.06;2041309;29;20067;-54
2022/12/03 03:57:21;;;;;;;51.58;20.73;;;;;;;-0.59;94.39;96093.88;2040606;29;20056;-55
2022/12/03 03:58:22;;;;;;;52.35;21.77;;;;;;;-0.52;94.22;96101.53;2040576;29;20059;-54
2022/12/03 03:59:23;;;;;;;52.17;21.27;;;;;;;-0.51;94.05;96103.25;2040786;29;20066;-56
2022/12/03 04:00:24;;;;;;;49.92;21.45;;;;;;;-0.58;93.92;96096.44;2032849;29;20056;-54
2022/12/03 04:01:25;;;;;;;59.72;23.08;;;;;;;-0.57;94.53;96099.84;2033565;29;20048;-55
2022/12/03 04:02:26;;;;;;;55.75;22.75;;;;;;;-0.48;94.62;96097.28;2041051;29;20071;-54
2022/12/03 04:03:28;;;;;;;54.88;22.42;;;;;;;-0.54;93.82;96094.72;2041477;29;20040;-54
2022/12/03 04:04:32;;;;;;;55.03;21.65;;;;;;;-0.62;94.42;96089.63;2041192;29;20475;-55
2022/12/03 04:05:33;;;;;;;53.60;21.73;;;;;;;-0.65;94.50;96089.66;2040845;29;20051;-54
2022/12/03 04:06:34;;;;;;;54.28;21.73;;;;;;;-0.59;94.25;96097.28;2032889;29;20067;-55
2022/12/03 04:07:35;;;;;;;51.13;21.75;;;;;;;-0.62;94.76;96096.44;2040858;29;20048;-55
2022/12/03 04:08:36;;;;;;;52.20;22.13;;;;;;;-0.67;94.27;96097.31;2041340;29;20047;-55
2022/12/03 04:09:37;;;;;;;58.33;22.75;;;;;;;-0.61;94.47;96096.47;2041726;29;20051;-54
2022/12/03 04:13:17;;;;;;;48.80;20.55;;;;;;;-0.54;93.76;96107.47;2041496;29;20079;-55
2022/12/03 04:14:18;;;;;;;46.35;20.77;;;;;;;-0.55;94.20;96100.69;2041575;29;20062;-54
2022/12/03 04:15:19;;;;;;;48.13;19.30;;;;;;;-0.53;93.57;96101.53;2041572;29;20052;-54
2022/12/03 04:16:20;;;;;;;57.30;22.02;;;;;;;-0.57;93.79;96100.69;2040696;29;20127;-54
2022/12/03 04:17:21;;;;;;;46.55;19.80;;;;;;;-0.56;93.44;96099.84;2041599;29;20381;-54
2022/12/03 04:19:42;;;;;;;48.67;20.33;;;;;;;-0.49;93.84;96098.97;2041683;29;20400;-55
2022/12/03 04:20:43;;;;;;;57.05;21.15;;;;;;;-0.51;93.65;96103.25;2041457;29;20062;-54
2022/12/03 04:23:04;;;;;;;44.58;18.27;;;;;;;-0.52;94.12;96098.97;2041748;29;20055;-55
2022/12/03 04:24:05;;;;;;;55.08;22.02;;;;;;;-0.57;94.02;96103.22;2041023;29;20052;-55
2022/12/03 04:29:12;;;;;;;63.00;24.75;;;;;;;-0.65;94.35;96082.00;2041107;29;20376;-55
2022/12/03 04:30:13;;;;;;;62.65;24.20;;;;;;;-0.61;94.91;96095.63;2041261;29;20059;-54
2022/12/03 04:35:43;;;;;;;64.88;22.55;;;;;;;-0.67;94.64;96093.88;2049741;29;20051;-54
2022/12/03 04:36:45;;;;;;;62.13;23.50;;;;;;;-0.76;95.27;96089.66;2046331;29;20046;-55
2022/12/03 04:37:46;;;;;;;67.80;25.00;;;;;;;-0.63;94.91;96095.59;2042312;29;20051;-55
2022/12/03 04:38:48;;;;;;;64.32;23.55;;;;;;;-0.65;94.60;96099.84;2042975;29;20058;-54
2022/12/03 04:39:49;;;;;;;56.95;21.17;;;;;;;-0.68;94.64;96100.69;2042955;29;20059;-55
2022/12/03 04:41:05;;;;;;;60.90;22.38;;;;;;;-0.63;94.97;96092.22;2042802;29;20059;-54
2022/12/03 04:42:06;;;;;;;62.97;23.25;;;;;;;-0.76;94.72;96104.13;2042697;29;20063;-64
2022/12/03 04:43:07;;;;;;;68.72;25.02;;;;;;;-0.79;95.11;96096.47;2043050;29;20125;-64
2022/12/03 04:45:28;;;;;;;58.97;22.52;;;;;;;-0.70;94.72;96102.41;2042753;29;20070;-64
2022/12/03 04:46:29;;;;;;;65.90;23.88;;;;;;;-0.66;94.45;96100.72;2042862;29;20044;-53
2022/12/03 04:47:30;;;;;;;62.55;23.88;;;;;;;-0.67;94.94;96099.00;2042563;29;20060;-55
2022/12/03 04:48:31;;;;;;;67.43;24.08;;;;;;;-0.67;95.06;96104.09;2042777;29;20047;-55
2022/12/03 04:49:33;;;;;;;68.20;23.90;;;;;;;-0.80;95.09;96087.13;2042985;29;20074;-53
2022/12/03 04:50:34;;;;;;;61.22;22.95;;;;;;;-0.77;94.84;96097.34;2043003;29;20054;-54
2022/12/03 04:51:35;;;;;;;65.50;23.00;;;;;;;-0.75;94.49;96109.25;2043183;29;20480;-60
2022/12/03 04:52:36;;;;;;;62.13;22.70;;;;;;;-0.74;94.93;96110.06;2042842;29;20079;-61
2022/12/03 04:53:37;;;;;;;58.33;22.02;;;;;;;-0.71;95.01;96121.13;2042964;29;20055;-60
2022/12/03 04:54:38;;;;;;;56.78;21.13;;;;;;;-0.71;94.44;96110.06;2042388;29;20460;-61
2022/12/03 04:55:39;;;;;;;51.60;20.50;;;;;;;-0.67;94.49;96104.09;2042254;29;20055;-61
2022/12/03 04:56:40;;;;;;;55.33;20.98;;;;;;;-0.75;94.56;96111.78;2043074;29;20044;-54
2022/12/03 04:57:41;;;;;;;52.78;20.92;;;;;;;-0.71;94.89;96118.56;2042685;29;20492;-54
2022/12/03 04:58:42;;;;;;;56.15;20.65;;;;;;;-0.78;93.96;96103.28;2043051;29;20059;-55
2022/12/03 04:59:44;;;;;;;62.10;24.05;;;;;;;-0.73;94.68;96117.72;2042608;29;20058;-55
2022/12/03 05:00:45;;;;;;;66.22;24.27;;;;;;;-0.70;94.71;96116.84;2042548;29;20416;-55
2022/12/03 05:01:46;;;;;;;58.83;22.38;;;;;;;-0.69;94.66;96118.56;2042686;29;20056;-55
2022/12/03 05:02:47;;;;;;;59.95;23.55;;;;;;;-0.60;94.90;96121.09;2042413;29;20059;-55
2022/12/03 05:03:48;;;;;;;59.28;23.05;;;;;;;-0.62;94.31;96116.84;2042808;29;20048;-54